sensor_id;sensor_type;location;lat;lon;timestamp;P1;durP1;ratioP1;P2;durP2;ratioP2
25237;SDS011;13185;50.872;5.306;2023-06-26T00:02:09;6.82;;;4.15;;
25237;SDS011;13185;50.872;5.306;2023-06-26T00:04:34;9.77;;;4.55;;
25237;SDS011;13185;50.872;5.306;2023-06-26T00:07:01;4.70;;;4.10;;
25237;SDS011;13185;50.872;5.306;2023-06-26T00:09:26;4.90;;;4.00;;
25237;SDS011;13185;50.872;5.306;2023-06-26T00:11:52;4.97;;;4.18;;
25237;SDS011;13185;50.872;5.306;2023-06-26T00:14:17;4.88;;;4.43;;
25237;SDS011;13185;50.872;5.306;2023-06-26T00:16:46;6.75;;;4.47;;
25237;SDS011;13185;50.872;5.306;2023-06-26T00:19:11;4.20;;;3.80;;
25237;SDS011;13185;50.872;5.306;2023-06-26T00:21:37;8.68;;;4.53;;
25237;SDS011;13185;50.872;5.306;2023-06-26T00:24:02;4.43;;;4.03;;
25237;SDS011;13185;50.872;5.306;2023-06-26T00:26:28;4.95;;;3.80;;
25237;SDS011;13185;50.872;5.306;2023-06-26T00:28:53;4.00;;;3.60;;
25237;SDS011;13185;50.872;5.306;2023-06-26T00:31:19;5.45;;;4.45;;
25237;SDS011;13185;50.872;5.306;2023-06-26T00:33:44;5.63;;;3.67;;
25237;SDS011;13185;50.872;5.306;2023-06-26T00:36:10;4.45;;;3.85;;
25237;SDS011;13185;50.872;5.306;2023-06-26T00:38:36;4.07;;;3.67;;
25237;SDS011;13185;50.872;5.306;2023-06-26T00:41:01;4.05;;;3.58;;
25237;SDS011;13185;50.872;5.306;2023-06-26T00:43:28;4.50;;;4.03;;
25237;SDS011;13185;50.872;5.306;2023-06-26T00:45:54;6.53;;;3.60;;
25237;SDS011;13185;50.872;5.306;2023-06-26T00:48:19;4.63;;;3.97;;
25237;SDS011;13185;50.872;5.306;2023-06-26T00:50:45;5.30;;;3.78;;
25237;SDS011;13185;50.872;5.306;2023-06-26T00:53:10;6.00;;;4.18;;
25237;SDS011;13185;50.872;5.306;2023-06-26T00:55:36;6.43;;;4.18;;
25237;SDS011;13185;50.872;5.306;2023-06-26T00:58:02;4.55;;;3.53;;
25237;SDS011;13185;50.872;5.306;2023-06-26T01:00:27;4.53;;;3.67;;
25237;SDS011;13185;50.872;5.306;2023-06-26T01:02:53;10.10;;;4.75;;
25237;SDS011;13185;50.872;5.306;2023-06-26T01:05:21;4.20;;;3.72;;
25237;SDS011;13185;50.872;5.306;2023-06-26T01:07:48;5.95;;;3.72;;
25237;SDS011;13185;50.872;5.306;2023-06-26T01:10:14;5.65;;;3.50;;
25237;SDS011;13185;50.872;5.306;2023-06-26T01:12:40;4.75;;;3.38;;
25237;SDS011;13185;50.872;5.306;2023-06-26T01:15:06;5.63;;;3.85;;
25237;SDS011;13185;50.872;5.306;2023-06-26T01:17:32;4.40;;;3.85;;
25237;SDS011;13185;50.872;5.306;2023-06-26T01:19:58;4.78;;;3.72;;
25237;SDS011;13185;50.872;5.306;2023-06-26T01:22:27;6.20;;;4.22;;
25237;SDS011;13185;50.872;5.306;2023-06-26T01:25:21;4.75;;;4.30;;
25237;SDS011;13185;50.872;5.306;2023-06-26T01:28:09;4.38;;;3.97;;
25237;SDS011;13185;50.872;5.306;2023-06-26T01:30:37;4.35;;;3.95;;
25237;SDS011;13185;50.872;5.306;2023-06-26T01:33:06;5.00;;;4.43;;
25237;SDS011;13185;50.872;5.306;2023-06-26T01:35:32;4.82;;;3.33;;
25237;SDS011;13185;50.872;5.306;2023-06-26T01:38:16;5.97;;;3.80;;
25237;SDS011;13185;50.872;5.306;2023-06-26T01:40:43;5.45;;;3.92;;
25237;SDS011;13185;50.872;5.306;2023-06-26T01:43:35;5.28;;;3.47;;
25237;SDS011;13185;50.872;5.306;2023-06-26T01:45:59;6.15;;;4.18;;
25237;SDS011;13185;50.872;5.306;2023-06-26T01:48:32;6.23;;;4.17;;
25237;SDS011;13185;50.872;5.306;2023-06-26T01:51:03;5.55;;;3.83;;
25237;SDS011;13185;50.872;5.306;2023-06-26T01:53:36;4.88;;;3.95;;
25237;SDS011;13185;50.872;5.306;2023-06-26T01:56:07;8.20;;;3.85;;
25237;SDS011;13185;50.872;5.306;2023-06-26T01:58:39;5.00;;;4.13;;
25237;SDS011;13185;50.872;5.306;2023-06-26T02:01:08;3.80;;;3.40;;
25237;SDS011;13185;50.872;5.306;2023-06-26T02:03:34;4.03;;;3.20;;
25237;SDS011;13185;50.872;5.306;2023-06-26T02:06:00;8.27;;;3.55;;
25237;SDS011;13185;50.872;5.306;2023-06-26T02:08:26;4.55;;;3.45;;
25237;SDS011;13185;50.872;5.306;2023-06-26T02:10:55;7.55;;;3.38;;
25237;SDS011;13185;50.872;5.306;2023-06-26T02:13:21;4.22;;;2.92;;
25237;SDS011;13185;50.872;5.306;2023-06-26T02:15:46;3.92;;;2.92;;
25237;SDS011;13185;50.872;5.306;2023-06-26T02:18:12;6.63;;;2.80;;
25237;SDS011;13185;50.872;5.306;2023-06-26T02:20:38;3.47;;;2.83;;
25237;SDS011;13185;50.872;5.306;2023-06-26T02:23:05;3.45;;;2.92;;
25237;SDS011;13185;50.872;5.306;2023-06-26T02:25:30;5.55;;;3.38;;
25237;SDS011;13185;50.872;5.306;2023-06-26T02:27:56;4.88;;;3.00;;
25237;SDS011;13185;50.872;5.306;2023-06-26T02:30:21;4.35;;;2.83;;
25237;SDS011;13185;50.872;5.306;2023-06-26T02:32:47;5.40;;;3.08;;
25237;SDS011;13185;50.872;5.306;2023-06-26T02:35:12;4.90;;;2.95;;
25237;SDS011;13185;50.872;5.306;2023-06-26T02:37:41;4.90;;;3.10;;
25237;SDS011;13185;50.872;5.306;2023-06-26T02:40:07;5.47;;;3.22;;
25237;SDS011;13185;50.872;5.306;2023-06-26T02:42:35;4.38;;;3.08;;
25237;SDS011;13185;50.872;5.306;2023-06-26T02:45:01;3.83;;;2.58;;
25237;SDS011;13185;50.872;5.306;2023-06-26T02:47:28;3.25;;;2.50;;
25237;SDS011;13185;50.872;5.306;2023-06-26T02:49:54;3.15;;;2.30;;
25237;SDS011;13185;50.872;5.306;2023-06-26T02:52:19;7.05;;;3.05;;
25237;SDS011;13185;50.872;5.306;2023-06-26T02:54:45;3.72;;;2.72;;
25237;SDS011;13185;50.872;5.306;2023-06-26T02:57:12;6.07;;;2.83;;
25237;SDS011;13185;50.872;5.306;2023-06-26T02:59:40;6.97;;;2.83;;
25237;SDS011;13185;50.872;5.306;2023-06-26T03:02:06;6.28;;;2.67;;
25237;SDS011;13185;50.872;5.306;2023-06-26T03:04:39;4.63;;;2.80;;
25237;SDS011;13185;50.872;5.306;2023-06-26T03:07:09;5.88;;;2.85;;
25237;SDS011;13185;50.872;5.306;2023-06-26T03:09:36;2.90;;;2.28;;
25237;SDS011;13185;50.872;5.306;2023-06-26T03:12:02;6.07;;;2.70;;
25237;SDS011;13185;50.872;5.306;2023-06-26T03:14:27;4.80;;;2.58;;
25237;SDS011;13185;50.872;5.306;2023-06-26T03:16:54;4.85;;;2.50;;
25237;SDS011;13185;50.872;5.306;2023-06-26T03:19:23;5.20;;;2.70;;
25237;SDS011;13185;50.872;5.306;2023-06-26T03:22:08;5.28;;;2.80;;
25237;SDS011;13185;50.872;5.306;2023-06-26T03:24:34;4.43;;;2.35;;
25237;SDS011;13185;50.872;5.306;2023-06-26T03:26:59;6.97;;;3.30;;
25237;SDS011;13185;50.872;5.306;2023-06-26T03:29:25;10.23;;;2.47;;
25237;SDS011;13185;50.872;5.306;2023-06-26T03:31:51;6.60;;;2.78;;
25237;SDS011;13185;50.872;5.306;2023-06-26T03:34:18;4.40;;;2.92;;
25237;SDS011;13185;50.872;5.306;2023-06-26T03:36:43;4.53;;;2.75;;
25237;SDS011;13185;50.872;5.306;2023-06-26T03:39:09;6.03;;;2.90;;
25237;SDS011;13185;50.872;5.306;2023-06-26T03:41:35;3.33;;;2.35;;
25237;SDS011;13185;50.872;5.306;2023-06-26T03:44:00;4.65;;;2.70;;
25237;SDS011;13185;50.872;5.306;2023-06-26T03:46:33;5.35;;;2.90;;
25237;SDS011;13185;50.872;5.306;2023-06-26T03:48:58;3.80;;;2.58;;
25237;SDS011;13185;50.872;5.306;2023-06-26T03:51:23;5.28;;;3.00;;
25237;SDS011;13185;50.872;5.306;2023-06-26T03:53:49;5.03;;;3.00;;
25237;SDS011;13185;50.872;5.306;2023-06-26T03:56:14;4.95;;;2.72;;
25237;SDS011;13185;50.872;5.306;2023-06-26T03:58:41;3.33;;;2.38;;
25237;SDS011;13185;50.872;5.306;2023-06-26T04:01:07;4.45;;;2.63;;
25237;SDS011;13185;50.872;5.306;2023-06-26T04:03:32;5.70;;;2.67;;
25237;SDS011;13185;50.872;5.306;2023-06-26T04:05:59;3.67;;;2.15;;
25237;SDS011;13185;50.872;5.306;2023-06-26T04:08:24;6.75;;;2.58;;
25237;SDS011;13185;50.872;5.306;2023-06-26T04:10:52;7.32;;;2.67;;
25237;SDS011;13185;50.872;5.306;2023-06-26T04:13:19;4.50;;;2.25;;
25237;SDS011;13185;50.872;5.306;2023-06-26T04:15:44;3.50;;;2.50;;
25237;SDS011;13185;50.872;5.306;2023-06-26T04:18:09;5.50;;;2.45;;
25237;SDS011;13185;50.872;5.306;2023-06-26T04:20:38;7.68;;;3.20;;
25237;SDS011;13185;50.872;5.306;2023-06-26T04:23:05;4.45;;;2.60;;
25237;SDS011;13185;50.872;5.306;2023-06-26T04:25:30;6.22;;;2.65;;
25237;SDS011;13185;50.872;5.306;2023-06-26T04:27:58;6.43;;;2.38;;
25237;SDS011;13185;50.872;5.306;2023-06-26T04:30:23;5.88;;;2.45;;
25237;SDS011;13185;50.872;5.306;2023-06-26T04:32:48;4.57;;;2.75;;
25237;SDS011;13185;50.872;5.306;2023-06-26T04:35:14;7.20;;;2.70;;
25237;SDS011;13185;50.872;5.306;2023-06-26T04:37:39;4.93;;;2.90;;
25237;SDS011;13185;50.872;5.306;2023-06-26T04:40:05;6.80;;;2.50;;
25237;SDS011;13185;50.872;5.306;2023-06-26T04:42:32;4.25;;;3.00;;
25237;SDS011;13185;50.872;5.306;2023-06-26T04:44:57;6.25;;;2.90;;
25237;SDS011;13185;50.872;5.306;2023-06-26T04:47:23;6.57;;;2.80;;
25237;SDS011;13185;50.872;5.306;2023-06-26T04:49:48;4.75;;;2.22;;
25237;SDS011;13185;50.872;5.306;2023-06-26T04:52:14;6.22;;;2.47;;
25237;SDS011;13185;50.872;5.306;2023-06-26T04:54:39;5.07;;;2.67;;
25237;SDS011;13185;50.872;5.306;2023-06-26T04:57:05;4.45;;;2.50;;
25237;SDS011;13185;50.872;5.306;2023-06-26T04:59:31;5.85;;;2.95;;
25237;SDS011;13185;50.872;5.306;2023-06-26T05:01:56;5.43;;;2.63;;
25237;SDS011;13185;50.872;5.306;2023-06-26T05:04:21;6.00;;;2.90;;
25237;SDS011;13185;50.872;5.306;2023-06-26T05:06:48;8.30;;;3.17;;
25237;SDS011;13185;50.872;5.306;2023-06-26T05:09:13;6.20;;;2.75;;
25237;SDS011;13185;50.872;5.306;2023-06-26T05:11:39;6.68;;;2.80;;
25237;SDS011;13185;50.872;5.306;2023-06-26T05:14:05;7.72;;;3.22;;
25237;SDS011;13185;50.872;5.306;2023-06-26T05:16:32;6.78;;;2.67;;
25237;SDS011;13185;50.872;5.306;2023-06-26T05:18:59;6.25;;;2.67;;
25237;SDS011;13185;50.872;5.306;2023-06-26T05:21:24;8.23;;;3.30;;
25237;SDS011;13185;50.872;5.306;2023-06-26T05:23:50;8.52;;;3.25;;
25237;SDS011;13185;50.872;5.306;2023-06-26T05:26:20;6.10;;;2.70;;
25237;SDS011;13185;50.872;5.306;2023-06-26T05:28:46;7.75;;;2.78;;
25237;SDS011;13185;50.872;5.306;2023-06-26T05:31:14;8.55;;;3.13;;
25237;SDS011;13185;50.872;5.306;2023-06-26T05:33:40;10.18;;;3.25;;
25237;SDS011;13185;50.872;5.306;2023-06-26T05:36:09;7.50;;;3.00;;
25237;SDS011;13185;50.872;5.306;2023-06-26T05:38:34;6.10;;;2.80;;
25237;SDS011;13185;50.872;5.306;2023-06-26T05:41:00;8.80;;;2.88;;
25237;SDS011;13185;50.872;5.306;2023-06-26T05:43:26;7.75;;;3.05;;
25237;SDS011;13185;50.872;5.306;2023-06-26T05:45:51;6.82;;;2.78;;
25237;SDS011;13185;50.872;5.306;2023-06-26T05:48:17;7.43;;;2.60;;
25237;SDS011;13185;50.872;5.306;2023-06-26T05:50:42;10.90;;;3.35;;
25237;SDS011;13185;50.872;5.306;2023-06-26T05:53:09;10.05;;;3.42;;
25237;SDS011;13185;50.872;5.306;2023-06-26T05:55:34;7.72;;;2.50;;
25237;SDS011;13185;50.872;5.306;2023-06-26T05:58:01;8.55;;;2.45;;
25237;SDS011;13185;50.872;5.306;2023-06-26T06:00:27;13.20;;;2.78;;
25237;SDS011;13185;50.872;5.306;2023-06-26T06:02:54;6.43;;;2.25;;
25237;SDS011;13185;50.872;5.306;2023-06-26T06:05:20;6.20;;;2.53;;
25237;SDS011;13185;50.872;5.306;2023-06-26T06:07:46;12.13;;;3.00;;
25237;SDS011;13185;50.872;5.306;2023-06-26T06:10:12;10.20;;;2.55;;
25237;SDS011;13185;50.872;5.306;2023-06-26T06:12:37;8.30;;;2.63;;
25237;SDS011;13185;50.872;5.306;2023-06-26T06:15:03;8.73;;;2.70;;
25237;SDS011;13185;50.872;5.306;2023-06-26T06:17:29;9.55;;;2.67;;
25237;SDS011;13185;50.872;5.306;2023-06-26T06:19:55;8.13;;;2.53;;
25237;SDS011;13185;50.872;5.306;2023-06-26T06:22:21;11.88;;;3.00;;
25237;SDS011;13185;50.872;5.306;2023-06-26T06:24:46;7.93;;;2.45;;
25237;SDS011;13185;50.872;5.306;2023-06-26T06:27:13;10.90;;;2.95;;
25237;SDS011;13185;50.872;5.306;2023-06-26T06:29:39;10.50;;;2.58;;
25237;SDS011;13185;50.872;5.306;2023-06-26T06:32:05;8.40;;;2.45;;
25237;SDS011;13185;50.872;5.306;2023-06-26T06:34:31;16.05;;;3.85;;
25237;SDS011;13185;50.872;5.306;2023-06-26T06:36:56;10.40;;;2.30;;
25237;SDS011;13185;50.872;5.306;2023-06-26T06:39:22;5.53;;;1.65;;
25237;SDS011;13185;50.872;5.306;2023-06-26T06:41:48;9.40;;;2.03;;
25237;SDS011;13185;50.872;5.306;2023-06-26T06:44:13;9.27;;;2.40;;
25237;SDS011;13185;50.872;5.306;2023-06-26T06:46:39;5.28;;;1.65;;
25237;SDS011;13185;50.872;5.306;2023-06-26T06:49:04;7.75;;;2.35;;
25237;SDS011;13185;50.872;5.306;2023-06-26T06:51:30;9.73;;;2.17;;
25237;SDS011;13185;50.872;5.306;2023-06-26T06:53:55;12.40;;;2.78;;
25237;SDS011;13185;50.872;5.306;2023-06-26T06:56:21;12.48;;;2.10;;
25237;SDS011;13185;50.872;5.306;2023-06-26T06:58:46;8.90;;;2.38;;
25237;SDS011;13185;50.872;5.306;2023-06-26T07:01:12;8.70;;;2.15;;
25237;SDS011;13185;50.872;5.306;2023-06-26T07:03:38;9.68;;;2.08;;
25237;SDS011;13185;50.872;5.306;2023-06-26T07:06:04;10.30;;;2.08;;
25237;SDS011;13185;50.872;5.306;2023-06-26T07:08:29;7.93;;;2.10;;
25237;SDS011;13185;50.872;5.306;2023-06-26T07:10:55;7.88;;;1.98;;
25237;SDS011;13185;50.872;5.306;2023-06-26T07:13:22;4.95;;;1.55;;
25237;SDS011;13185;50.872;5.306;2023-06-26T07:15:47;5.88;;;1.27;;
25237;SDS011;13185;50.872;5.306;2023-06-26T07:18:13;7.30;;;1.75;;
25237;SDS011;13185;50.872;5.306;2023-06-26T07:20:39;6.07;;;1.63;;
25237;SDS011;13185;50.872;5.306;2023-06-26T07:23:04;10.70;;;1.80;;
25237;SDS011;13185;50.872;5.306;2023-06-26T07:25:30;6.43;;;1.42;;
25237;SDS011;13185;50.872;5.306;2023-06-26T07:27:55;6.63;;;1.33;;
25237;SDS011;13185;50.872;5.306;2023-06-26T07:30:20;8.10;;;2.15;;
25237;SDS011;13185;50.872;5.306;2023-06-26T07:32:46;7.95;;;1.92;;
25237;SDS011;13185;50.872;5.306;2023-06-26T07:35:11;7.13;;;1.75;;
25237;SDS011;13185;50.872;5.306;2023-06-26T07:37:37;6.90;;;1.65;;
25237;SDS011;13185;50.872;5.306;2023-06-26T07:40:02;9.10;;;1.90;;
25237;SDS011;13185;50.872;5.306;2023-06-26T07:42:29;9.35;;;1.75;;
25237;SDS011;13185;50.872;5.306;2023-06-26T07:44:54;4.95;;;1.20;;
25237;SDS011;13185;50.872;5.306;2023-06-26T07:47:20;5.47;;;1.38;;
25237;SDS011;13185;50.872;5.306;2023-06-26T07:49:45;5.38;;;1.38;;
25237;SDS011;13185;50.872;5.306;2023-06-26T07:52:10;8.93;;;1.77;;
25237;SDS011;13185;50.872;5.306;2023-06-26T07:54:36;6.38;;;1.60;;
25237;SDS011;13185;50.872;5.306;2023-06-26T07:57:03;5.07;;;1.70;;
25237;SDS011;13185;50.872;5.306;2023-06-26T07:59:32;7.00;;;1.70;;
25237;SDS011;13185;50.872;5.306;2023-06-26T08:01:58;7.03;;;1.73;;
25237;SDS011;13185;50.872;5.306;2023-06-26T08:04:25;7.28;;;1.40;;
25237;SDS011;13185;50.872;5.306;2023-06-26T08:06:53;6.45;;;1.90;;
25237;SDS011;13185;50.872;5.306;2023-06-26T08:09:19;6.63;;;1.80;;
25237;SDS011;13185;50.872;5.306;2023-06-26T08:11:47;6.68;;;1.65;;
25237;SDS011;13185;50.872;5.306;2023-06-26T08:14:12;8.07;;;1.95;;
25237;SDS011;13185;50.872;5.306;2023-06-26T08:16:38;7.90;;;1.60;;
25237;SDS011;13185;50.872;5.306;2023-06-26T08:19:04;7.95;;;1.90;;
25237;SDS011;13185;50.872;5.306;2023-06-26T08:21:30;6.05;;;1.50;;
25237;SDS011;13185;50.872;5.306;2023-06-26T08:23:55;7.95;;;1.40;;
25237;SDS011;13185;50.872;5.306;2023-06-26T08:26:21;5.47;;;1.48;;
25237;SDS011;13185;50.872;5.306;2023-06-26T08:28:47;7.25;;;1.92;;
25237;SDS011;13185;50.872;5.306;2023-06-26T08:31:12;4.63;;;1.70;;
25237;SDS011;13185;50.872;5.306;2023-06-26T08:33:37;4.25;;;1.10;;
25237;SDS011;13185;50.872;5.306;2023-06-26T08:36:03;9.15;;;2.10;;
25237;SDS011;13185;50.872;5.306;2023-06-26T08:38:29;8.57;;;1.40;;
25237;SDS011;13185;50.872;5.306;2023-06-26T08:40:54;6.30;;;1.55;;
25237;SDS011;13185;50.872;5.306;2023-06-26T08:43:20;7.28;;;1.63;;
25237;SDS011;13185;50.872;5.306;2023-06-26T08:45:47;6.22;;;1.83;;
25237;SDS011;13185;50.872;5.306;2023-06-26T08:48:16;6.60;;;1.95;;
25237;SDS011;13185;50.872;5.306;2023-06-26T08:50:43;10.00;;;1.85;;
25237;SDS011;13185;50.872;5.306;2023-06-26T08:53:14;7.32;;;1.63;;
25237;SDS011;13185;50.872;5.306;2023-06-26T08:55:48;7.40;;;1.33;;
25237;SDS011;13185;50.872;5.306;2023-06-26T08:58:18;5.22;;;1.60;;
25237;SDS011;13185;50.872;5.306;2023-06-26T09:00:43;5.05;;;1.98;;
25237;SDS011;13185;50.872;5.306;2023-06-26T09:03:09;9.48;;;2.13;;
25237;SDS011;13185;50.872;5.306;2023-06-26T09:05:35;5.00;;;1.45;;
25237;SDS011;13185;50.872;5.306;2023-06-26T09:08:01;6.03;;;1.70;;
25237;SDS011;13185;50.872;5.306;2023-06-26T09:10:27;4.20;;;1.40;;
25237;SDS011;13185;50.872;5.306;2023-06-26T09:12:55;5.00;;;1.60;;
25237;SDS011;13185;50.872;5.306;2023-06-26T09:15:22;6.68;;;1.52;;
25237;SDS011;13185;50.872;5.306;2023-06-26T09:17:48;6.13;;;1.40;;
25237;SDS011;13185;50.872;5.306;2023-06-26T09:20:14;7.07;;;1.75;;
25237;SDS011;13185;50.872;5.306;2023-06-26T09:22:42;6.03;;;1.67;;
25237;SDS011;13185;50.872;5.306;2023-06-26T09:25:12;10.02;;;1.60;;
25237;SDS011;13185;50.872;5.306;2023-06-26T09:27:37;7.30;;;1.30;;
25237;SDS011;13185;50.872;5.306;2023-06-26T09:30:03;3.85;;;1.15;;
25237;SDS011;13185;50.872;5.306;2023-06-26T09:32:34;25.38;;;3.08;;
25237;SDS011;13185;50.872;5.306;2023-06-26T09:35:02;25.30;;;3.63;;
25237;SDS011;13185;50.872;5.306;2023-06-26T09:37:29;4.35;;;1.25;;
25237;SDS011;13185;50.872;5.306;2023-06-26T09:39:54;4.45;;;1.10;;
25237;SDS011;13185;50.872;5.306;2023-06-26T09:42:20;7.25;;;1.20;;
25237;SDS011;13185;50.872;5.306;2023-06-26T09:44:47;15.35;;;2.08;;
25237;SDS011;13185;50.872;5.306;2023-06-26T09:47:16;19.17;;;2.92;;
25237;SDS011;13185;50.872;5.306;2023-06-26T09:49:43;6.40;;;1.55;;
25237;SDS011;13185;50.872;5.306;2023-06-26T09:52:09;3.88;;;0.63;;
25237;SDS011;13185;50.872;5.306;2023-06-26T09:54:35;2.85;;;0.80;;
25237;SDS011;13185;50.872;5.306;2023-06-26T09:57:11;6.93;;;0.80;;
25237;SDS011;13185;50.872;5.306;2023-06-26T09:59:38;3.40;;;0.55;;
25237;SDS011;13185;50.872;5.306;2023-06-26T10:02:05;9.95;;;1.45;;
25237;SDS011;13185;50.872;5.306;2023-06-26T10:04:31;16.08;;;1.45;;
25237;SDS011;13185;50.872;5.306;2023-06-26T10:06:57;10.40;;;1.40;;
25237;SDS011;13185;50.872;5.306;2023-06-26T10:09:26;3.30;;;0.60;;
25237;SDS011;13185;50.872;5.306;2023-06-26T10:12:12;6.50;;;1.02;;
25237;SDS011;13185;50.872;5.306;2023-06-26T10:14:50;4.78;;;1.25;;
25237;SDS011;13185;50.872;5.306;2023-06-26T10:17:19;10.95;;;1.35;;
25237;SDS011;13185;50.872;5.306;2023-06-26T10:19:46;5.40;;;1.02;;
25237;SDS011;13185;50.872;5.306;2023-06-26T10:22:14;8.13;;;1.15;;
25237;SDS011;13185;50.872;5.306;2023-06-26T10:24:42;2.38;;;0.63;;
25237;SDS011;13185;50.872;5.306;2023-06-26T10:27:17;3.97;;;1.13;;
25237;SDS011;13185;50.872;5.306;2023-06-26T10:29:54;5.07;;;0.88;;
25237;SDS011;13185;50.872;5.306;2023-06-26T10:32:25;3.63;;;0.90;;
25237;SDS011;13185;50.872;5.306;2023-06-26T10:34:52;3.92;;;0.90;;
25237;SDS011;13185;50.872;5.306;2023-06-26T10:37:20;3.67;;;1.35;;
25237;SDS011;13185;50.872;5.306;2023-06-26T10:42:15;5.00;;;1.00;;
25237;SDS011;13185;50.872;5.306;2023-06-26T10:44:45;2.75;;;0.60;;
25237;SDS011;13185;50.872;5.306;2023-06-26T10:47:12;4.38;;;1.00;;
25237;SDS011;13185;50.872;5.306;2023-06-26T10:49:56;5.80;;;1.00;;
25237;SDS011;13185;50.872;5.306;2023-06-26T10:52:22;2.20;;;0.57;;
25237;SDS011;13185;50.872;5.306;2023-06-26T10:54:51;3.33;;;0.70;;
25237;SDS011;13185;50.872;5.306;2023-06-26T10:57:23;2.65;;;0.70;;
25237;SDS011;13185;50.872;5.306;2023-06-26T10:59:49;1.67;;;0.50;;
25237;SDS011;13185;50.872;5.306;2023-06-26T11:02:46;1.73;;;0.60;;
25237;SDS011;13185;50.872;5.306;2023-06-26T11:05:12;5.07;;;0.70;;
25237;SDS011;13185;50.872;5.306;2023-06-26T11:08:04;4.28;;;0.77;;
25237;SDS011;13185;50.872;5.306;2023-06-26T11:10:47;4.75;;;0.85;;
25237;SDS011;13185;50.872;5.306;2023-06-26T11:13:13;2.60;;;0.70;;
25237;SDS011;13185;50.872;5.306;2023-06-26T11:15:39;18.17;;;1.17;;
25237;SDS011;13185;50.872;5.306;2023-06-26T11:18:08;8.55;;;1.67;;
25237;SDS011;13185;50.872;5.306;2023-06-26T11:20:34;7.38;;;1.40;;
25237;SDS011;13185;50.872;5.306;2023-06-26T11:23:00;2.85;;;0.70;;
25237;SDS011;13185;50.872;5.306;2023-06-26T11:25:27;8.50;;;0.80;;
25237;SDS011;13185;50.872;5.306;2023-06-26T11:27:53;7.43;;;1.20;;
25237;SDS011;13185;50.872;5.306;2023-06-26T11:30:25;4.97;;;0.98;;
25237;SDS011;13185;50.872;5.306;2023-06-26T11:32:51;2.45;;;0.80;;
25237;SDS011;13185;50.872;5.306;2023-06-26T11:35:23;3.40;;;0.80;;
25237;SDS011;13185;50.872;5.306;2023-06-26T11:37:59;6.00;;;0.98;;
25237;SDS011;13185;50.872;5.306;2023-06-26T11:40:29;5.18;;;0.98;;
25237;SDS011;13185;50.872;5.306;2023-06-26T11:42:59;2.95;;;0.75;;
25237;SDS011;13185;50.872;5.306;2023-06-26T11:45:30;1.73;;;0.60;;
25237;SDS011;13185;50.872;5.306;2023-06-26T11:47:58;3.35;;;0.70;;
25237;SDS011;13185;50.872;5.306;2023-06-26T11:50:24;4.47;;;0.98;;
25237;SDS011;13185;50.872;5.306;2023-06-26T11:52:53;5.72;;;1.13;;
25237;SDS011;13185;50.872;5.306;2023-06-26T11:55:22;6.45;;;0.68;;
25237;SDS011;13185;50.872;5.306;2023-06-26T11:57:49;2.33;;;0.47;;
25237;SDS011;13185;50.872;5.306;2023-06-26T12:00:16;4.80;;;0.70;;
25237;SDS011;13185;50.872;5.306;2023-06-26T12:02:43;5.93;;;1.30;;
25237;SDS011;13185;50.872;5.306;2023-06-26T12:05:10;2.70;;;0.80;;
25237;SDS011;13185;50.872;5.306;2023-06-26T12:07:37;4.90;;;0.77;;
25237;SDS011;13185;50.872;5.306;2023-06-26T12:10:03;1.67;;;0.75;;
25237;SDS011;13185;50.872;5.306;2023-06-26T12:12:29;2.00;;;0.60;;
25237;SDS011;13185;50.872;5.306;2023-06-26T12:14:56;3.35;;;1.20;;
25237;SDS011;13185;50.872;5.306;2023-06-26T12:17:23;3.40;;;0.88;;
25237;SDS011;13185;50.872;5.306;2023-06-26T12:19:50;3.92;;;0.70;;
25237;SDS011;13185;50.872;5.306;2023-06-26T12:22:16;13.73;;;2.05;;
25237;SDS011;13185;50.872;5.306;2023-06-26T12:24:43;4.55;;;0.70;;
25237;SDS011;13185;50.872;5.306;2023-06-26T12:27:09;8.05;;;1.20;;
25237;SDS011;13185;50.872;5.306;2023-06-26T12:29:37;2.15;;;0.85;;
25237;SDS011;13185;50.872;5.306;2023-06-26T12:32:03;3.60;;;0.95;;
25237;SDS011;13185;50.872;5.306;2023-06-26T12:34:31;1.75;;;1.05;;
25237;SDS011;13185;50.872;5.306;2023-06-26T12:37:05;1.63;;;0.50;;
25237;SDS011;13185;50.872;5.306;2023-06-26T12:39:49;3.83;;;0.93;;
25237;SDS011;13185;50.872;5.306;2023-06-26T12:42:24;7.20;;;0.85;;
25237;SDS011;13185;50.872;5.306;2023-06-26T12:44:52;4.25;;;0.93;;
25237;SDS011;13185;50.872;5.306;2023-06-26T12:47:23;6.03;;;1.17;;
25237;SDS011;13185;50.872;5.306;2023-06-26T12:49:50;4.40;;;1.00;;
25237;SDS011;13185;50.872;5.306;2023-06-26T12:52:17;4.05;;;0.93;;
25237;SDS011;13185;50.872;5.306;2023-06-26T12:54:45;6.95;;;0.98;;
25237;SDS011;13185;50.872;5.306;2023-06-26T12:57:12;4.03;;;0.98;;
25237;SDS011;13185;50.872;5.306;2023-06-26T12:59:41;2.85;;;0.70;;
25237;SDS011;13185;50.872;5.306;2023-06-26T13:02:07;7.70;;;1.27;;
25237;SDS011;13185;50.872;5.306;2023-06-26T13:04:33;5.18;;;0.93;;
25237;SDS011;13185;50.872;5.306;2023-06-26T13:07:00;8.25;;;1.02;;
25237;SDS011;13185;50.872;5.306;2023-06-26T13:09:26;3.85;;;0.68;;
25237;SDS011;13185;50.872;5.306;2023-06-26T13:11:52;2.90;;;0.80;;
25237;SDS011;13185;50.872;5.306;2023-06-26T13:14:19;5.15;;;0.70;;
25237;SDS011;13185;50.872;5.306;2023-06-26T13:16:44;4.65;;;0.98;;
25237;SDS011;13185;50.872;5.306;2023-06-26T13:19:10;2.55;;;0.82;;
25237;SDS011;13185;50.872;5.306;2023-06-26T13:21:35;3.97;;;1.25;;
25237;SDS011;13185;50.872;5.306;2023-06-26T13:24:02;12.43;;;2.03;;
25237;SDS011;13185;50.872;5.306;2023-06-26T13:26:29;3.20;;;0.90;;
25237;SDS011;13185;50.872;5.306;2023-06-26T13:28:54;6.05;;;1.08;;
25237;SDS011;13185;50.872;5.306;2023-06-26T13:31:20;6.88;;;0.90;;
25237;SDS011;13185;50.872;5.306;2023-06-26T13:33:46;6.93;;;1.13;;
25237;SDS011;13185;50.872;5.306;2023-06-26T13:36:16;3.83;;;0.80;;
25237;SDS011;13185;50.872;5.306;2023-06-26T13:38:41;5.50;;;1.00;;
25237;SDS011;13185;50.872;5.306;2023-06-26T13:41:07;7.07;;;0.70;;
25237;SDS011;13185;50.872;5.306;2023-06-26T13:43:32;2.42;;;0.68;;
25237;SDS011;13185;50.872;5.306;2023-06-26T13:45:58;6.93;;;1.00;;
25237;SDS011;13185;50.872;5.306;2023-06-26T13:48:23;7.28;;;0.75;;
25237;SDS011;13185;50.872;5.306;2023-06-26T13:50:49;6.55;;;1.02;;
25237;SDS011;13185;50.872;5.306;2023-06-26T13:53:15;3.20;;;0.90;;
25237;SDS011;13185;50.872;5.306;2023-06-26T13:55:41;5.13;;;0.80;;
25237;SDS011;13185;50.872;5.306;2023-06-26T13:58:07;2.88;;;0.85;;
25237;SDS011;13185;50.872;5.306;2023-06-26T14:00:33;4.97;;;0.80;;
25237;SDS011;13185;50.872;5.306;2023-06-26T14:03:01;2.65;;;0.70;;
25237;SDS011;13185;50.872;5.306;2023-06-26T14:05:34;4.20;;;0.90;;
25237;SDS011;13185;50.872;5.306;2023-06-26T14:08:01;2.95;;;0.93;;
25237;SDS011;13185;50.872;5.306;2023-06-26T14:10:29;1.90;;;0.60;;
25237;SDS011;13185;50.872;5.306;2023-06-26T14:12:55;4.72;;;0.88;;
25237;SDS011;13185;50.872;5.306;2023-06-26T14:15:20;2.70;;;0.47;;
25237;SDS011;13185;50.872;5.306;2023-06-26T14:17:46;1.85;;;0.90;;
25237;SDS011;13185;50.872;5.306;2023-06-26T14:20:15;3.70;;;0.85;;
25237;SDS011;13185;50.872;5.306;2023-06-26T14:22:41;4.03;;;0.90;;
25237;SDS011;13185;50.872;5.306;2023-06-26T14:25:12;1.92;;;0.80;;
25237;SDS011;13185;50.872;5.306;2023-06-26T14:27:38;3.90;;;0.77;;
25237;SDS011;13185;50.872;5.306;2023-06-26T14:30:04;5.60;;;0.85;;
25237;SDS011;13185;50.872;5.306;2023-06-26T14:32:31;2.70;;;0.73;;
25237;SDS011;13185;50.872;5.306;2023-06-26T14:34:57;2.95;;;0.80;;
25237;SDS011;13185;50.872;5.306;2023-06-26T14:37:23;2.67;;;1.05;;
25237;SDS011;13185;50.872;5.306;2023-06-26T14:39:49;5.15;;;0.63;;
25237;SDS011;13185;50.872;5.306;2023-06-26T14:42:14;1.73;;;0.60;;
25237;SDS011;13185;50.872;5.306;2023-06-26T14:44:40;2.72;;;0.60;;
25237;SDS011;13185;50.872;5.306;2023-06-26T14:47:05;4.22;;;0.85;;
25237;SDS011;13185;50.872;5.306;2023-06-26T14:49:31;6.88;;;1.33;;